Time;durP1;ratioP1;P1;durP2;ratioP2;P2;SDS_P1;SDS_P2;PMS_P1;PMS_P2;Temp;Humidity;BMP_temperature;BMP_pressure;BME280_temperature;BME280_humidity;BME280_pressure;Samples;Min_cycle;Max_cycle;Signal;HPM_P1;HPM_P2
2021/12/24 00:01:41;;;;;;;55.10;46.65;;;;;;;-141.48;100.00;69781.59;5189253;28;20029;-63
2021/12/24 00:04:12;;;;;;;44.88;40.38;;;;;;;-141.48;100.00;69781.59;5189386;28;20028;-63
2021/12/24 00:06:43;;;;;;;43.85;39.83;;;;;;;-141.48;100.00;69781.59;5189208;28;20098;-60
2021/12/24 00:09:21;;;;;;;48.63;40.75;;;;;;;-141.48;100.00;69781.59;5189190;28;20074;-62
2021/12/24 00:11:58;;;;;;;42.03;38.05;;;;;;;-141.48;100.00;69781.59;5189012;28;20056;-59
2021/12/24 00:14:31;;;;;;;45.92;40.92;;;;;;;-141.48;100.00;69781.59;5205551;28;20534;-61
2021/12/24 00:17:04;;;;;;;54.33;39.72;;;;;;;-141.48;100.00;69781.59;5188801;28;20082;-59
2021/12/24 00:19:46;;;;;;;39.05;35.35;;;;;;;-141.48;100.00;69781.59;5188965;28;20398;-61
2021/12/24 00:36:05;;;;;;;38.58;34.47;;;;;;;-141.48;100.00;69781.59;5206595;28;20040;-62
2021/12/24 00:38:36;;;;;;;41.80;37.35;;;;;;;-141.48;100.00;69781.59;5206396;28;20018;-61
2021/12/24 00:41:06;;;;;;;41.25;36.80;;;;;;;-141.48;100.00;69781.59;5188414;28;20213;-59
2021/12/24 00:43:37;;;;;;;38.25;34.67;;;;;;;-141.48;100.00;69781.59;5188309;28;20025;-62
2021/12/24 00:46:07;;;;;;;42.92;38.33;;;;;;;-141.48;100.00;69781.59;5188581;28;20537;-61
2021/12/24 00:48:38;;;;;;;46.55;36.08;;;;;;;-141.48;100.00;69781.59;5188563;28;20061;-60
2021/12/24 00:51:29;;;;;;;41.97;37.80;;;;;;;-141.48;100.00;69781.59;5188179;28;20021;-62
2021/12/24 00:56:48;;;;;;;40.78;36.50;;;;;;;-141.48;100.00;69781.59;5206560;28;20048;-62
2021/12/24 00:59:19;;;;;;;46.45;36.78;;;;;;;-141.48;100.00;69781.59;5204601;28;20017;-61
2021/12/24 01:01:49;;;;;;;40.90;36.47;;;;;;;-141.48;100.00;69781.59;5188145;28;20036;-62
2021/12/24 01:04:20;;;;;;;38.28;34.97;;;;;;;-141.48;100.00;69781.59;5204416;28;20030;-64
2021/12/24 01:06:50;;;;;;;46.55;35.92;;;;;;;-141.48;100.00;69781.59;5188195;28;20037;-60
2021/12/24 01:09:21;;;;;;;38.72;34.78;;;;;;;-141.48;100.00;69781.59;5187760;28;20108;-61
2021/12/24 01:11:51;;;;;;;39.25;35.33;;;;;;;-141.48;100.00;69781.59;5188072;28;20029;-62
2021/12/24 01:14:23;;;;;;;39.13;34.17;;;;;;;-141.48;100.00;69781.59;5205655;28;20030;-62
2021/12/24 01:17:07;;;;;;;36.42;32.75;;;;;;;-141.48;100.00;69781.59;5188135;28;20017;-62
2021/12/24 01:19:41;;;;;;;36.47;32.55;;;;;;;-141.48;100.00;69781.59;5187740;28;20026;-61
2021/12/24 01:25:15;;;;;;;38.85;35.08;;;;;;;-141.48;100.00;69781.59;5206036;28;20098;-62
2021/12/24 01:44:28;;;;;;;34.97;31.97;;;;;;;-141.48;100.00;69781.59;5204972;28;20055;-65
2021/12/24 01:47:03;;;;;;;33.15;30.00;;;;;;;-141.48;100.00;69781.59;5187542;28;20021;-62
2021/12/24 01:49:34;;;;;;;34.95;31.42;;;;;;;-141.48;100.00;69781.59;5204133;28;20390;-62
2021/12/24 01:52:06;;;;;;;37.30;33.22;;;;;;;-141.48;100.00;69781.59;5187353;28;20033;-61
2021/12/24 01:54:38;;;;;;;36.28;32.88;;;;;;;-141.48;100.00;69781.59;5203551;28;20041;-62
2021/12/24 01:57:11;;;;;;;36.65;32.95;;;;;;;-141.48;100.00;69781.59;5187514;28;20022;-60
2021/12/24 01:59:42;;;;;;;33.45;29.30;;;;;;;-141.48;100.00;69781.59;5204016;28;20079;-61
2021/12/24 02:02:12;;;;;;;31.45;28.20;;;;;;;-141.48;100.00;69781.59;5187775;28;20485;-62
2021/12/24 02:04:43;;;;;;;36.53;32.67;;;;;;;-141.48;100.00;69781.59;5187433;28;20032;-61
2021/12/24 02:07:13;;;;;;;38.17;34.08;;;;;;;-141.48;100.00;69781.59;5204944;28;20038;-62
2021/12/24 02:09:44;;;;;;;33.20;30.08;;;;;;;-141.48;100.00;69781.59;5187415;28;20033;-61
2021/12/24 02:12:16;;;;;;;34.95;29.92;;;;;;;-141.48;100.00;69781.59;5187520;28;20032;-62
2021/12/24 02:14:50;;;;;;;32.88;29.85;;;;;;;-141.48;100.00;69781.59;5187159;28;20021;-60
2021/12/24 02:28:39;;;;;;;32.80;29.73;;;;;;;-141.48;100.00;69781.59;5208793;28;20064;-61
2021/12/24 02:31:16;;;;;;;43.97;28.92;;;;;;;-141.48;100.00;69781.59;5191132;28;20036;-61
2021/12/24 02:33:47;;;;;;;33.17;29.23;;;;;;;-141.48;100.00;69781.59;5190698;28;20025;-62
2021/12/24 02:36:20;;;;;;;31.13;27.70;;;;;;;-141.48;100.00;69781.59;5207366;28;20401;-60
2021/12/24 02:38:50;;;;;;;42.28;31.10;;;;;;;-141.48;100.00;69781.59;5207401;28;20021;-62
2021/12/24 02:41:21;;;;;;;42.75;29.67;;;;;;;-141.48;100.00;69781.59;5207303;28;20117;-62
2021/12/24 02:43:52;;;;;;;47.33;28.77;;;;;;;-141.48;100.00;69781.59;5190544;28;20189;-62
2021/12/24 02:55:07;;;;;;;30.60;26.38;;;;;;;-141.48;100.00;69781.59;5208011;28;20517;-60
2021/12/24 02:57:42;;;;;;;31.25;26.88;;;;;;;-141.48;100.00;69781.59;5208556;28;20014;-61
2021/12/24 03:00:19;;;;;;;30.65;27.65;;;;;;;-141.48;100.00;69781.59;5206299;28;20029;-60
2021/12/24 03:02:50;;;;;;;34.45;29.58;;;;;;;-141.48;100.00;69781.59;5206989;28;20035;-62
2021/12/24 03:05:22;;;;;;;34.45;28.60;;;;;;;-141.48;100.00;69781.59;5190162;28;20477;-61
2021/12/24 03:07:53;;;;;;;36.70;27.13;;;;;;;-141.48;100.00;69781.59;5190333;28;20486;-61
2021/12/24 03:10:24;;;;;;;31.73;26.10;;;;;;;-141.48;100.00;69781.59;5190130;28;20037;-62
2021/12/24 03:12:54;;;;;;;30.95;25.70;;;;;;;-141.48;100.00;69781.59;5190246;28;20052;-61
2021/12/24 03:15:25;;;;;;;33.60;29.73;;;;;;;-141.48;100.00;69781.59;5190281;28;20437;-63
2021/12/24 03:17:59;;;;;;;31.00;27.80;;;;;;;-141.48;100.00;69781.59;5190239;28;20045;-60
2021/12/24 03:20:34;;;;;;;33.35;30.02;;;;;;;-141.48;100.00;69781.59;5190096;28;20394;-64
2021/12/24 03:23:10;;;;;;;31.20;27.88;;;;;;;-141.48;100.00;69781.59;5206575;28;20373;-60
2021/12/24 03:25:41;;;;;;;28.95;26.08;;;;;;;-141.48;100.00;69781.59;5189712;28;20056;-62
2021/12/24 03:28:11;;;;;;;30.25;27.17;;;;;;;-141.48;100.00;69781.59;5190135;28;20033;-62
2021/12/24 03:30:42;;;;;;;33.35;27.33;;;;;;;-141.48;100.00;69781.59;5188915;28;20104;-62
2021/12/24 03:33:12;;;;;;;34.17;26.23;;;;;;;-141.48;100.00;69781.59;5189862;28;20106;-63
2021/12/24 03:35:43;;;;;;;29.05;26.27;;;;;;;-141.48;100.00;69781.59;5189782;28;20610;-63
2021/12/24 03:38:13;;;;;;;32.03;28.65;;;;;;;-141.48;100.00;69781.59;5189980;28;20018;-62
2021/12/24 03:40:44;;;;;;;34.20;25.58;;;;;;;-141.48;100.00;69781.59;5190339;28;20069;-62
2021/12/24 03:43:15;;;;;;;41.08;30.65;;;;;;;-141.48;100.00;69781.59;5189837;28;20504;-62
2021/12/24 03:48:44;;;;;;;29.10;26.17;;;;;;;-141.48;100.00;69781.59;5210535;22;20052;-62
2021/12/24 03:56:37;;;;;;;29.30;26.38;;;;;;;-141.48;100.00;69781.59;5228379;28;20473;-59
2021/12/24 03:59:08;;;;;;;42.53;29.55;;;;;;;-141.48;100.00;69781.59;5209880;28;20029;-59
2021/12/24 04:01:40;;;;;;;33.08;26.52;;;;;;;-141.48;100.00;69781.59;5209761;28;20570;-61
2021/12/24 04:04:11;;;;;;;27.77;24.92;;;;;;;-141.48;100.00;69781.59;5210326;28;20037;-61
2021/12/24 04:06:42;;;;;;;28.05;23.38;;;;;;;-141.48;100.00;69781.59;5209860;28;20052;-62
2021/12/24 04:09:12;;;;;;;33.88;27.77;;;;;;;-141.48;100.00;69781.59;5210114;28;20059;-60
2021/12/24 04:11:43;;;;;;;25.70;23.00;;;;;;;-141.48;100.00;69781.59;5210427;28;20031;-59
2021/12/24 04:14:13;;;;;;;29.58;26.65;;;;;;;-141.48;100.00;69781.59;5209489;28;20071;-61
2021/12/24 04:16:44;;;;;;;28.92;25.50;;;;;;;-141.48;100.00;69781.59;5226270;28;20396;-61
2021/12/24 04:24:50;;;;;;;27.67;24.55;;;;;;;-141.48;100.00;69781.59;5209278;28;20028;-59
2021/12/24 04:25:06;;;;;;;32.13;28.10;;;;;;;-141.48;100.00;69781.59;5227249;28;20118;-60
2021/12/24 04:27:36;;;;;;;47.03;26.15;;;;;;;-141.48;100.00;69781.59;5210651;28;20481;-60
2021/12/24 04:30:12;;;;;;;39.75;29.17;;;;;;;-141.48;100.00;69781.59;5210019;28;20082;-60
2021/12/24 04:33:01;;;;;;;34.50;26.27;;;;;;;-141.48;100.00;69781.59;5209651;28;20027;-61
2021/12/24 04:35:41;;;;;;;42.13;28.52;;;;;;;-141.48;100.00;69781.59;5210482;28;20515;-60
2021/12/24 04:52:29;;;;;;;32.28;26.83;;;;;;;-141.48;100.00;69781.59;5226939;28;20579;-60
2021/12/24 05:03:31;;;;;;;28.45;25.60;;;;;;;-141.48;100.00;69781.59;5227330;28;20166;-62
2021/12/24 05:09:09;;;;;;;30.02;24.27;;;;;;;-141.48;100.00;69781.59;5182542;28;20041;-62
2021/12/24 05:11:39;;;;;;;36.38;25.52;;;;;;;-141.48;100.00;69781.59;5209312;28;20032;-61
2021/12/24 05:14:14;;;;;;;25.90;23.83;;;;;;;-141.48;100.00;69781.59;5209059;28;20550;-61
2021/12/24 05:16:49;;;;;;;25.50;22.92;;;;;;;-141.48;100.00;69781.59;5209167;28;20492;-61
2021/12/24 05:21:54;;;;;;;26.13;23.20;;;;;;;-141.48;100.00;69781.59;5227465;28;20091;-61
2021/12/24 05:24:29;;;;;;;24.63;22.27;;;;;;;-141.48;100.00;69781.59;5208970;28;20024;-60
2021/12/24 05:27:02;;;;;;;24.17;21.67;;;;;;;-141.48;100.00;69781.59;5225449;28;20416;-61
2021/12/24 05:29:33;;;;;;;36.17;22.00;;;;;;;-141.48;100.00;69781.59;5209095;28;20425;-62
2021/12/24 05:32:04;;;;;;;27.73;20.60;;;;;;;-141.48;100.00;69781.59;5225374;28;20481;-61
2021/12/24 05:34:34;;;;;;;31.92;22.95;;;;;;;-141.48;100.00;69781.59;5224989;28;20025;-61
2021/12/24 05:37:05;;;;;;;27.48;24.70;;;;;;;-141.48;100.00;69781.59;5208896;28;20052;-61
2021/12/24 05:39:35;;;;;;;34.88;27.38;;;;;;;-141.48;100.00;69781.59;5208481;28;20021;-60
2021/12/24 05:42:06;;;;;;;29.98;23.30;;;;;;;-141.48;100.00;69781.59;5208752;28;20033;-61
2021/12/24 05:44:37;;;;;;;27.90;25.02;;;;;;;-141.48;100.00;69781.59;5208866;28;20029;-62
2021/12/24 05:47:07;;;;;;;26.05;23.33;;;;;;;-141.48;100.00;69781.59;5208941;28;20192;-61
2021/12/24 05:49:38;;;;;;;55.50;25.13;;;;;;;-141.48;100.00;69781.59;5208891;28;20025;-63
2021/12/24 05:52:08;;;;;;;37.35;25.95;;;;;;;-141.48;100.00;69781.59;5226097;28;20060;-62
2021/12/24 05:54:39;;;;;;;29.67;24.70;;;;;;;-141.48;100.00;69781.59;5210939;28;20021;-61
2021/12/24 05:57:09;;;;;;;28.40;25.42;;;;;;;-141.48;100.00;69781.59;5213797;28;20036;-61
2021/12/24 05:59:40;;;;;;;32.42;23.63;;;;;;;-141.48;100.00;69781.59;5213765;28;20110;-61
2021/12/24 06:02:11;;;;;;;35.45;24.25;;;;;;;-141.48;100.00;69781.59;5230515;28;20093;-61
2021/12/24 06:04:41;;;;;;;26.75;22.70;;;;;;;-141.48;100.00;69781.59;5229373;28;20056;-63
2021/12/24 06:07:12;;;;;;;24.90;22.15;;;;;;;-141.48;100.00;69781.59;5213126;28;20039;-61
2021/12/24 06:09:42;;;;;;;24.75;22.52;;;;;;;-141.48;100.00;69781.59;5212392;28;20158;-63
2021/12/24 06:12:13;;;;;;;28.23;22.10;;;;;;;-141.48;100.00;69781.59;5212437;28;20029;-64
2021/12/24 06:14:45;;;;;;;23.77;21.38;;;;;;;-141.48;100.00;69781.59;5228955;28;20032;-61
2021/12/24 06:17:17;;;;;;;32.85;22.13;;;;;;;-141.48;100.00;69781.59;5212446;28;20400;-60
2021/12/24 06:19:49;;;;;;;24.42;18.48;;;;;;;-141.48;100.00;69781.59;5212350;28;20028;-60
2021/12/24 06:22:19;;;;;;;36.58;22.33;;;;;;;-141.48;100.00;69781.59;5226193;28;20250;-62
2021/12/24 06:24:50;;;;;;;25.00;21.17;;;;;;;-141.48;100.00;69781.59;5211875;28;20156;-61
2021/12/24 06:27:20;;;;;;;25.38;22.58;;;;;;;-141.48;100.00;69781.59;5213056;28;20021;-60
2021/12/24 06:29:51;;;;;;;23.20;19.98;;;;;;;-141.48;100.00;69781.59;5212344;28;20021;-63
2021/12/24 06:32:21;;;;;;;27.55;22.33;;;;;;;-141.48;100.00;69781.59;5211626;28;20100;-62
2021/12/24 06:34:52;;;;;;;27.35;22.92;;;;;;;-141.48;100.00;69781.59;5211380;28;20028;-65
2021/12/24 06:37:23;;;;;;;29.77;21.83;;;;;;;-141.48;100.00;69781.59;5211633;28;20028;-62
2021/12/24 06:39:55;;;;;;;24.23;19.10;;;;;;;-141.48;100.00;69781.59;5211329;28;20040;-63
2021/12/24 06:42:25;;;;;;;27.13;21.90;;;;;;;-141.48;100.00;69781.59;5211370;28;20143;-61
2021/12/24 06:44:56;;;;;;;21.38;19.23;;;;;;;-141.48;100.00;69781.59;5211034;28;20158;-61
2021/12/24 06:47:26;;;;;;;25.33;20.80;;;;;;;-141.48;100.00;69781.59;5211014;28;20086;-62
2021/12/24 06:49:57;;;;;;;28.60;20.35;;;;;;;-141.48;100.00;69781.59;5211064;28;20036;-61
2021/12/24 06:52:27;;;;;;;33.20;22.08;;;;;;;-141.48;100.00;69781.59;5228927;28;20215;-61
2021/12/24 06:54:58;;;;;;;24.98;19.67;;;;;;;-141.48;100.00;69781.59;5228791;28;20495;-61
2021/12/24 06:57:28;;;;;;;31.05;20.25;;;;;;;-141.48;100.00;69781.59;5227365;28;20171;-63
2021/12/24 06:59:59;;;;;;;26.35;21.67;;;;;;;-141.48;100.00;69781.59;5208418;28;20083;-61
2021/12/24 07:02:29;;;;;;;34.60;21.00;;;;;;;-141.48;100.00;69781.59;5210311;28;20041;-61
2021/12/24 07:05:00;;;;;;;24.58;20.10;;;;;;;-141.48;100.00;69781.59;5209921;28;20029;-61
2021/12/24 07:07:30;;;;;;;33.63;22.33;;;;;;;-141.48;100.00;69781.59;5210328;28;20040;-61
2021/12/24 07:10:01;;;;;;;29.52;21.20;;;;;;;-141.48;100.00;69781.59;5210311;28;20112;-61
2021/12/24 07:12:32;;;;;;;24.13;21.48;;;;;;;-141.48;100.00;69781.59;5228085;28;20025;-62
2021/12/24 07:15:03;;;;;;;28.63;23.88;;;;;;;-141.48;100.00;69781.59;5210046;28;20029;-61
2021/12/24 07:17:33;;;;;;;31.70;23.00;;;;;;;-141.48;100.00;69781.59;5209890;28;20052;-61
2021/12/24 07:20:05;;;;;;;32.83;21.75;;;;;;;-141.48;100.00;69781.59;5209977;28;20021;-61
2021/12/24 07:22:35;;;;;;;35.15;22.38;;;;;;;-141.48;100.00;69781.59;5210005;28;20024;-62
2021/12/24 07:25:06;;;;;;;41.15;22.95;;;;;;;-141.48;100.00;69781.59;5227612;28;20039;-58
2021/12/24 07:27:37;;;;;;;31.45;23.00;;;;;;;-141.48;100.00;69781.59;5224949;28;20021;-61
2021/12/24 07:30:10;;;;;;;25.40;22.58;;;;;;;-141.48;100.00;69781.59;5209140;28;20041;-61
2021/12/24 07:32:41;;;;;;;28.90;22.05;;;;;;;-141.48;100.00;69781.59;5209938;28;20392;-61
2021/12/24 07:35:12;;;;;;;29.33;21.02;;;;;;;-141.48;100.00;69781.59;5209703;28;20032;-61
2021/12/24 07:37:43;;;;;;;23.35;20.67;;;;;;;-141.48;100.00;69781.59;5209828;28;20021;-61
2021/12/24 07:40:17;;;;;;;27.33;24.65;;;;;;;-141.48;100.00;69781.59;5209325;28;20029;-61
2021/12/24 07:42:47;;;;;;;20.48;18.88;;;;;;;-141.48;100.00;69781.59;5226376;28;20032;-61
2021/12/24 07:45:18;;;;;;;25.55;22.83;;;;;;;-141.48;100.00;69781.59;5226073;28;20029;-61
2021/12/24 07:48:06;;;;;;;24.48;22.20;;;;;;;-141.48;100.00;69781.59;5209683;28;20098;-61
2021/12/24 07:53:10;;;;;;;41.20;21.42;;;;;;;-141.48;100.00;69781.59;5227855;28;20043;-62
2021/12/24 07:55:42;;;;;;;25.77;23.13;;;;;;;-141.48;100.00;69781.59;5209562;28;20075;-62
2021/12/24 07:58:14;;;;;;;27.90;22.52;;;;;;;-141.48;100.00;69781.59;5209545;28;20115;-62
2021/12/24 08:00:46;;;;;;;28.48;25.52;;;;;;;-141.48;100.00;69781.59;5209146;28;20029;-61
2021/12/24 08:03:17;;;;;;;28.17;21.70;;;;;;;-141.48;100.00;69781.59;5209224;28;20116;-61
2021/12/24 08:05:49;;;;;;;28.08;23.63;;;;;;;-141.48;100.00;69781.59;5209044;28;20493;-61
2021/12/24 08:08:19;;;;;;;24.70;22.05;;;;;;;-141.48;100.00;69781.59;5209103;28;20103;-61
2021/12/24 08:10:49;;;;;;;26.85;22.23;;;;;;;-141.48;100.00;69781.59;5209142;28;20541;-61
2021/12/24 08:13:20;;;;;;;27.42;22.02;;;;;;;-141.48;100.00;69781.59;5208913;28;20485;-62
2021/12/24 08:15:54;;;;;;;34.55;25.88;;;;;;;-141.48;100.00;69781.59;5225083;28;20443;-62
2021/12/24 08:18:24;;;;;;;34.40;25.10;;;;;;;-141.48;100.00;69781.59;5208052;28;20020;-61
2021/12/24 08:20:55;;;;;;;33.10;25.00;;;;;;;-141.48;100.00;69781.59;5225092;28;20060;-61
2021/12/24 08:23:25;;;;;;;31.55;23.85;;;;;;;-141.48;100.00;69781.59;5225069;28;20028;-62
2021/12/24 08:25:58;;;;;;;36.30;25.63;;;;;;;-141.48;100.00;69781.59;5208808;28;20112;-61
2021/12/24 08:28:29;;;;;;;26.52;24.13;;;;;;;-141.48;100.00;69781.59;5208835;28;20393;-62
2021/12/24 08:30:59;;;;;;;32.20;25.65;;;;;;;-141.48;100.00;69781.59;5226267;28;20029;-62
2021/12/24 08:33:30;;;;;;;32.55;27.20;;;;;;;-141.48;100.00;69781.59;5208400;28;20032;-62
2021/12/24 08:36:04;;;;;;;32.63;26.40;;;;;;;-141.48;100.00;69781.59;5208091;28;20111;-62
2021/12/24 08:38:34;;;;;;;34.38;24.95;;;;;;;-141.48;100.00;69781.59;5208144;28;20017;-62
2021/12/24 08:41:05;;;;;;;46.80;27.00;;;;;;;-141.48;100.00;69781.59;5208025;28;20554;-62
2021/12/24 08:43:36;;;;;;;37.20;27.90;;;;;;;-141.48;100.00;69781.59;5207931;28;20397;-61
2021/12/24 08:46:06;;;;;;;38.35;29.27;;;;;;;-141.48;100.00;69781.59;5208052;28;20029;-62
2021/12/24 08:48:37;;;;;;;28.27;24.98;;;;;;;-141.48;100.00;69781.59;5207761;28;20024;-62
2021/12/24 08:51:07;;;;;;;29.02;25.83;;;;;;;-141.48;100.00;69781.59;5225952;28;20068;-61
2021/12/24 08:53:39;;;;;;;32.08;28.27;;;;;;;-141.48;100.00;69781.59;5207735;28;20078;-62
2021/12/24 08:56:09;;;;;;;34.38;27.27;;;;;;;-141.48;100.00;69781.59;5208179;28;20020;-61
2021/12/24 08:58:40;;;;;;;29.45;23.67;;;;;;;-141.48;100.00;69781.59;5208055;28;20027;-61
2021/12/24 09:01:12;;;;;;;34.00;25.00;;;;;;;-141.48;100.00;69781.59;5219478;28;20508;-62
2021/12/24 09:03:42;;;;;;;40.13;28.42;;;;;;;-141.48;100.00;69781.59;5204877;28;20033;-62
2021/12/24 09:06:13;;;;;;;30.30;27.00;;;;;;;-141.48;100.00;69781.59;5187316;28;20112;-63
2021/12/24 09:08:44;;;;;;;31.33;27.98;;;;;;;-141.48;100.00;69781.59;5187277;28;20025;-62
2021/12/24 09:11:15;;;;;;;26.85;24.27;;;;;;;-141.48;100.00;69781.59;5205533;28;20041;-62
2021/12/24 09:13:45;;;;;;;36.50;26.10;;;;;;;-141.48;100.00;69781.59;5187507;28;20033;-62
2021/12/24 09:16:19;;;;;;;29.23;25.73;;;;;;;-141.48;100.00;69781.59;5187486;28;20029;-61
2021/12/24 09:18:56;;;;;;;28.25;23.30;;;;;;;-141.48;100.00;69781.59;5187343;28;20021;-60
2021/12/24 09:21:28;;;;;;;26.70;24.08;;;;;;;-141.48;100.00;69781.59;5187307;28;20040;-61
2021/12/24 09:23:58;;;;;;;27.05;23.33;;;;;;;-141.48;100.00;69781.59;5174905;28;20061;-61
2021/12/24 09:26:32;;;;;;;31.88;26.10;;;;;;;-141.48;100.00;69781.59;5167091;28;20049;-61
2021/12/24 09:29:06;;;;;;;34.88;23.02;;;;;;;-141.48;100.00;69781.59;5165450;28;20026;-61
2021/12/24 09:31:37;;;;;;;42.28;24.27;;;;;;;-141.48;100.00;69781.59;5166472;28;20049;-60
2021/12/24 09:34:07;;;;;;;31.67;21.55;;;;;;;-141.48;100.00;69781.59;5166409;28;20030;-60
2021/12/24 09:36:38;;;;;;;25.95;22.33;;;;;;;-141.48;100.00;69781.59;5175844;28;20519;-60
2021/12/24 09:39:09;;;;;;;35.30;22.98;;;;;;;-141.48;100.00;69781.59;5223819;28;20033;-60
2021/12/24 09:41:39;;;;;;;24.73;21.95;;;;;;;-141.48;100.00;69781.59;5189454;28;20502;-61
2021/12/24 09:44:10;;;;;;;28.45;21.08;;;;;;;-141.48;100.00;69781.59;5186634;28;20477;-62
2021/12/24 09:46:43;;;;;;;24.50;21.65;;;;;;;-141.48;100.00;69781.59;5203361;28;20122;-60
2021/12/24 09:49:14;;;;;;;24.10;21.60;;;;;;;-141.48;100.00;69781.59;5186670;28;20025;-60
2021/12/24 09:51:47;;;;;;;31.38;23.10;;;;;;;-141.48;100.00;69781.59;5186613;28;20033;-60
2021/12/24 09:54:24;;;;;;;44.13;23.10;;;;;;;-141.48;100.00;69781.59;5186777;28;20036;-59
2021/12/24 09:56:57;;;;;;;28.60;21.67;;;;;;;-141.48;100.00;69781.59;5187098;28;20022;-61
2021/12/24 09:59:28;;;;;;;33.15;23.60;;;;;;;-141.48;100.00;69781.59;5187001;28;20084;-60
2021/12/24 10:02:00;;;;;;;35.55;23.27;;;;;;;-141.48;100.00;69781.59;5186684;28;20029;-60
2021/12/24 10:04:33;;;;;;;22.98;20.60;;;;;;;-141.48;100.00;69781.59;5202812;28;20029;-61
2021/12/24 10:07:16;;;;;;;34.38;25.55;;;;;;;-141.48;100.00;69781.59;5186881;28;20415;-60
2021/12/24 10:09:49;;;;;;;30.80;25.67;;;;;;;-141.48;100.00;69781.59;5186570;28;20025;-60
2021/12/24 10:12:24;;;;;;;26.45;24.17;;;;;;;-141.48;100.00;69781.59;5186439;28;20029;-59
2021/12/24 10:14:58;;;;;;;33.78;22.00;;;;;;;-141.48;100.00;69781.59;5186295;28;20037;-60
2021/12/24 10:17:34;;;;;;;25.23;22.85;;;;;;;-141.48;100.00;69781.59;5186688;28;20424;-60
2021/12/24 10:20:11;;;;;;;30.58;22.95;;;;;;;-141.48;100.00;69781.59;5203146;28;20294;-60
2021/12/24 10:22:52;;;;;;;29.92;21.98;;;;;;;-141.48;100.00;69781.59;5186500;28;20025;-60
2021/12/24 10:25:29;;;;;;;31.83;23.90;;;;;;;-141.48;100.00;69781.59;5186286;28;20052;-60
2021/12/24 10:28:09;;;;;;;26.25;21.05;;;;;;;-141.48;100.00;69781.59;5186443;28;20029;-60
2021/12/24 10:30:40;;;;;;;;;;;;;;;-141.48;100.00;69781.59;5186956;28;20060;-61
2021/12/24 10:33:11;;;;;;;28.35;23.23;;;;;;;-141.48;100.00;69781.59;5186531;28;20446;-59
2021/12/24 10:35:41;;;;;;;24.95;22.42;;;;;;;-141.48;100.00;69781.59;5186064;28;20030;-60
2021/12/24 10:38:17;;;;;;;26.45;23.67;;;;;;;-141.48;100.00;69781.59;5186447;28;20024;-60
2021/12/24 10:40:49;;;;;;;43.28;27.08;;;;;;;-141.48;100.00;69781.59;5206097;28;20119;-60
2021/12/24 10:43:28;;;;;;;26.30;23.00;;;;;;;-141.48;100.00;69781.59;5206492;28;20048;-60
2021/12/24 10:46:13;;;;;;;29.33;26.27;;;;;;;-141.48;100.00;69781.59;5189996;28;20029;-60
2021/12/24 10:49:13;;;;;;;30.75;27.67;;;;;;;-141.48;100.00;69781.59;5189728;28;20417;-60
2021/12/24 10:52:11;;;;;;;28.50;23.20;;;;;;;-141.48;100.00;69781.59;5189839;28;20030;-61
2021/12/24 10:57:51;;;;;;;41.50;24.35;;;;;;;-141.48;100.00;69781.59;5158476;28;20046;-64
2021/12/24 11:00:25;;;;;;;26.20;23.38;;;;;;;-141.48;100.00;69781.59;5148612;28;20354;-64
2021/12/24 11:02:59;;;;;;;39.95;26.05;;;;;;;-141.48;100.00;69781.59;5149145;28;20493;-64
2021/12/24 11:05:33;;;;;;;30.00;24.90;;;;;;;-141.48;100.00;69781.59;5149267;28;20029;-64
2021/12/24 11:08:16;;;;;;;26.90;24.00;;;;;;;-141.48;100.00;69781.59;5146695;28;20026;-64
2021/12/24 11:10:52;;;;;;;26.05;23.58;;;;;;;-141.48;100.00;69781.59;5149277;28;20026;-64
2021/12/24 11:13:31;;;;;;;28.80;23.85;;;;;;;-141.48;100.00;69781.59;5149227;28;20040;-64
2021/12/24 11:16:02;;;;;;;24.83;22.58;;;;;;;-141.48;100.00;69781.59;5149957;28;20454;-64
2021/12/24 11:18:36;;;;;;;25.77;23.02;;;;;;;-141.48;100.00;69781.59;5149659;28;20030;-64
2021/12/24 11:21:10;;;;;;;25.55;21.75;;;;;;;-141.48;100.00;69781.59;5149573;28;20471;-65
2021/12/24 11:23:41;;;;;;;27.55;20.73;;;;;;;-141.48;100.00;69781.59;5149413;28;20351;-65
2021/12/24 11:26:18;;;;;;;26.35;23.73;;;;;;;-141.48;100.00;69781.59;5149546;28;20027;-65
2021/12/24 11:28:49;;;;;;;24.85;22.48;;;;;;;-141.48;100.00;69781.59;5149023;28;20027;-64
2021/12/24 11:31:28;;;;;;;27.40;24.55;;;;;;;-141.48;100.00;69781.59;5149279;28;20034;-65
2021/12/24 11:33:59;;;;;;;23.27;21.23;;;;;;;-141.48;100.00;69781.59;5149289;28;20037;-64
2021/12/24 11:36:30;;;;;;;22.25;19.73;;;;;;;-141.48;100.00;69781.59;5149525;28;20026;-65
2021/12/24 11:39:07;;;;;;;25.58;23.13;;;;;;;-141.48;100.00;69781.59;5149141;28;20145;-64
2021/12/24 11:41:39;;;;;;;27.70;23.90;;;;;;;-141.48;100.00;69781.59;5149200;28;20077;-64
2021/12/24 11:44:11;;;;;;;31.50;23.63;;;;;;;-141.48;100.00;69781.59;5149567;28;20026;-66
2021/12/24 11:46:42;;;;;;;28.23;23.60;;;;;;;-141.48;100.00;69781.59;5149264;28;20362;-64
2021/12/24 11:49:12;;;;;;;27.50;21.98;;;;;;;-141.48;100.00;69781.59;5149073;28;20466;-64
2021/12/24 11:51:44;;;;;;;24.38;21.85;;;;;;;-141.48;100.00;69781.59;5165635;28;20058;-65
2021/12/24 11:54:14;;;;;;;31.23;23.33;;;;;;;-141.48;100.00;69781.59;5148798;28;20028;-64
2021/12/24 11:56:49;;;;;;;26.25;23.38;;;;;;;-141.48;100.00;69781.59;5149254;28;20026;-65
2021/12/24 11:59:37;;;;;;;29.17;24.90;;;;;;;-141.48;100.00;69781.59;5148821;28;20026;-64
2021/12/24 12:02:08;;;;;;;27.42;22.65;;;;;;;-141.48;100.00;69781.59;5148784;28;20034;-63
2021/12/24 12:04:39;;;;;;;27.52;23.13;;;;;;;-141.48;100.00;69781.59;5149043;28;20552;-63
2021/12/24 12:07:16;;;;;;;31.15;24.08;;;;;;;-141.48;100.00;69781.59;5148819;28;20037;-63
2021/12/24 12:09:47;;;;;;;27.30;24.08;;;;;;;-141.48;100.00;69781.59;5148492;28;20054;-64
2021/12/24 12:12:32;;;;;;;28.20;22.92;;;;;;;-141.48;100.00;69781.59;5141124;28;20081;-64
2021/12/24 12:15:38;;;;;;;28.38;24.27;;;;;;;-141.48;100.00;69781.59;5136756;28;20023;-64
2021/12/24 12:18:11;;;;;;;29.23;26.02;;;;;;;-141.48;100.00;69781.59;5049066;29;20472;-65
2021/12/24 12:20:48;;;;;;;25.45;22.77;;;;;;;-141.48;100.00;69781.59;5116975;28;20041;-64
2021/12/24 12:23:48;;;;;;;26.50;21.83;;;;;;;-141.48;100.00;69781.59;5127919;28;20053;-63
2021/12/24 12:26:35;;;;;;;36.95;23.92;;;;;;;-141.48;100.00;69781.59;5128059;28;20109;-64
2021/12/24 12:29:42;;;;;;;27.67;24.92;;;;;;;-141.48;100.00;69781.59;5128368;28;20391;-64
2021/12/24 12:32:13;;;;;;;27.85;25.25;;;;;;;-141.48;100.00;69781.59;5128010;28;20034;-64
2021/12/24 12:34:43;;;;;;;26.83;23.65;;;;;;;-141.48;100.00;69781.59;5128058;28;20052;-64
2021/12/24 12:37:24;;;;;;;28.98;24.27;;;;;;;-141.48;100.00;69781.59;5145659;28;20559;-65
2021/12/24 12:40:02;;;;;;;25.42;23.02;;;;;;;-141.48;100.00;69781.59;5128045;28;20514;-68
2021/12/24 12:42:48;;;;;;;28.63;24.75;;;;;;;-141.48;100.00;69781.59;5127761;28;20114;-64
2021/12/24 12:45:44;;;;;;;23.25;21.08;;;;;;;-141.48;100.00;69781.59;5128015;28;20463;-63
2021/12/24 12:48:22;;;;;;;26.42;22.85;;;;;;;-141.48;100.00;69781.59;5117963;28;20062;-64
2021/12/24 12:50:58;;;;;;;30.17;23.05;;;;;;;-141.48;100.00;69781.59;5128101;28;20093;-63
2021/12/24 12:53:30;;;;;;;31.88;22.15;;;;;;;-141.48;100.00;69781.59;5127679;28;20037;-64
2021/12/24 12:56:10;;;;;;;25.42;22.95;;;;;;;-141.48;100.00;69781.59;5127723;28;20398;-63
2021/12/24 12:58:42;;;;;;;23.70;21.38;;;;;;;-141.48;100.00;69781.59;5113494;29;20042;-64
2021/12/24 13:01:14;;;;;;;32.33;24.10;;;;;;;-141.48;100.00;69781.59;5124561;28;20023;-64
2021/12/24 13:03:57;;;;;;;26.30;22.30;;;;;;;-141.48;100.00;69781.59;5127290;28;20129;-64